Lavallette, New Jersey
Current Conditions -  °F | °C
As of 3:35 AM on Thursday 27 Nov 2014 (Local Time) from KMJX Reporting Station
Overcast Overcast  
Wind Chill: 34°   Ceiling: 6500
Heat Index: 34°   Visibility: 10mi
Dew Point: 34°   Wind: 0mph
Humidity: 100%   Direction: NA
Pressure: 29.94"   Gusts: NA
Location:  39.97°N, 74.07°W
Report Text: KMJX 270835Z AUTO 00000KT 10SM OVC065 01/01 A2994 RMK AO1
Loading
Personal Weather Stations






























Interactive Weather Map New forecast layout! Learn more

10-Day Weather Forecast

Advertisements
Track Severe Weather on mobile